Aswan International Airport


Codes: HESN/ASW
Name: Aswan International Airport
City: Aswan
Country: Egypt
Elevation: 662 ft.
Wikipedia:

Photos at Aswan International Airport


   Photos courtesy of SpottingLog. You can add your own sightings and photos by signing up for a free trial today.



SU-GFD, 22-Aug-2023
© Mark Lovett

SU-GED, 22-Aug-2023
© Mark Lovett

9503, 22-Aug-2023
© Mark Lovett

1281, 22-Aug-2023
© Mark Lovett

9401, 22-Aug-2023
© Mark Lovett

9513, 22-Aug-2023
© Mark Lovett

9405, 22-Aug-2023
© Mark Lovett

9526, 22-Aug-2023
© Mark Lovett

1281, 19-Aug-2023
© Mark Lovett

SU-BUW, 19-Aug-2023
© Mark Lovett


Weather at Aswan International Airport


Time (UTC)DescriptionTempratureWindCloud coverageVisibilityPressureHumidity
19-Apr-2024 06:00Clear Sky25°C18 mph, N0%10000m1011hPa26%
19-Apr-2024 09:00Clear Sky30°C13 mph, N0%10000m1011hPa19%
19-Apr-2024 12:00Clear Sky35°C11 mph, N0%10000m1008hPa12%
19-Apr-2024 15:00Clear Sky35°C11 mph, NW0%10000m1007hPa11%
19-Apr-2024 18:00Clear Sky29°C11 mph, N0%10000m1008hPa14%
19-Apr-2024 21:00Clear Sky26°C11 mph, N0%10000m1009hPa18%
20-Apr-2024 00:00Clear Sky24°C9 mph, N0%10000m1008hPa24%
20-Apr-2024 03:00Clear Sky23°C9 mph, N0%10000m1009hPa26%
20-Apr-2024 06:00Clear Sky27°C11 mph, N0%10000m1010hPa20%
20-Apr-2024 09:00Clear Sky32°C9 mph, NW0%10000m1010hPa14%
20-Apr-2024 12:00Clear Sky36°C13 mph, NW0%10000m1006hPa9%
20-Apr-2024 15:00Clear Sky35°C18 mph, NW0%10000m1006hPa7%
20-Apr-2024 18:00Clear Sky28°C11 mph, NW0%10000m1008hPa10%
20-Apr-2024 21:00Clear Sky26°C11 mph, NW0%10000m1009hPa15%
21-Apr-2024 00:00Clear Sky25°C11 mph, NW0%10000m1008hPa18%
21-Apr-2024 03:00Clear Sky22°C11 mph, N0%10000m1009hPa21%
21-Apr-2024 06:00Clear Sky28°C11 mph, NE0%10000m1011hPa17%
21-Apr-2024 09:00Clear Sky33°C11 mph, NE0%10000m1011hPa10%
21-Apr-2024 12:00Clear Sky36°C16 mph, N0%10000m1009hPa9%
21-Apr-2024 15:00Clear Sky35°C16 mph, N0%10000m1008hPa9%
21-Apr-2024 18:00Clear Sky30°C11 mph, N0%10000m1010hPa12%
21-Apr-2024 21:00Clear Sky26°C9 mph, N0%10000m1012hPa17%
22-Apr-2024 00:00Clear Sky24°C11 mph, N0%10000m1012hPa19%
22-Apr-2024 03:00Clear Sky23°C11 mph, NE0%10000m1012hPa22%
22-Apr-2024 06:00Clear Sky28°C13 mph, NE1%10000m1013hPa18%
22-Apr-2024 09:00Clear Sky34°C13 mph, NE0%10000m1012hPa10%
22-Apr-2024 12:00Few Clouds37°C9 mph, N19%10000m1009hPa7%
22-Apr-2024 15:00Clear Sky36°C11 mph, N0%10000m1008hPa7%
22-Apr-2024 18:00Clear Sky30°C11 mph, N0%10000m1010hPa10%
22-Apr-2024 21:00Clear Sky26°C9 mph, NE0%10000m1012hPa18%
23-Apr-2024 00:00Clear Sky24°C9 mph, N4%10000m1011hPa19%
23-Apr-2024 03:00Scattered Clouds22°C11 mph, N36%10000m1011hPa19%
23-Apr-2024 06:00Scattered Clouds29°C9 mph, NE41%10000m1012hPa11%
23-Apr-2024 09:00Clear Sky36°C7 mph, NE1%10000m1010hPa8%
23-Apr-2024 12:00Clear Sky38°C4 mph, SE1%10000m1007hPa8%
23-Apr-2024 15:00Clear Sky38°C2 mph, E0%10000m1006hPa8%
23-Apr-2024 18:00Scattered Clouds32°C16 mph, E25%10000m1008hPa11%
23-Apr-2024 21:00Broken Clouds28°C7 mph, NE82%10000m1008hPa17%
24-Apr-2024 00:00Scattered Clouds27°C9 mph, N42%10000m1007hPa18%
24-Apr-2024 03:00Clear Sky25°C11 mph, N0%10000m1007hPa17%